createdAt,value
2023-04-21T00:01:47.779Z,8.95
2023-04-21T00:04:16.603Z,8.58
2023-04-21T00:06:47.416Z,8.97
2023-04-21T00:09:15.337Z,8.97
2023-04-21T00:11:43.268Z,8.89
2023-04-21T00:14:11.336Z,8.96
2023-04-21T00:16:39.473Z,8.93
2023-04-21T00:19:08.636Z,8.91
2023-04-21T00:21:39.634Z,8.89
2023-04-21T00:24:10.916Z,8.79
2023-04-21T00:26:39.008Z,8.71
2023-04-21T00:29:07.016Z,8.69
2023-04-21T00:31:35.296Z,8.65
2023-04-21T00:34:03.575Z,8.62
2023-04-21T00:36:33.748Z,8.43
2023-04-21T00:39:01.858Z,8.60
2023-04-21T00:41:31.185Z,8.55
2023-04-21T00:44:02.202Z,8.49
2023-04-21T00:46:31.712Z,8.52
2023-04-21T00:49:00.831Z,8.49
2023-04-21T00:51:30.287Z,8.47
2023-04-21T00:53:58.419Z,8.43
2023-04-21T00:56:27.491Z,8.47
2023-04-21T00:58:59.059Z,8.42
2023-04-21T01:01:30.281Z,8.41
2023-04-21T01:04:00.318Z,8.38
2023-04-21T01:06:32.373Z,8.33
2023-04-21T01:09:00.482Z,8.14
2023-04-21T01:11:28.552Z,8.37
2023-04-21T01:13:58.165Z,8.11
2023-04-21T01:16:27.064Z,8.09
2023-04-21T01:18:55.464Z,7.98
2023-04-21T01:21:23.807Z,8.02
2023-04-21T01:23:53.755Z,8.19
2023-04-21T01:26:22.777Z,8.17
2023-04-21T01:28:51.535Z,7.97
2023-04-21T01:31:22.711Z,7.95
2023-04-21T01:33:51.480Z,7.86
2023-04-21T01:36:20.105Z,7.72
2023-04-21T01:38:49.034Z,7.67
2023-04-21T01:41:20.300Z,7.72
2023-04-21T01:43:48.534Z,7.54
2023-04-21T01:46:16.754Z,7.85
2023-04-21T01:48:45.263Z,7.81
2023-04-21T01:51:13.635Z,7.78
2023-04-21T01:53:41.888Z,7.82
2023-04-21T01:56:10.194Z,7.87
2023-04-21T01:58:39.971Z,7.86
2023-04-21T02:01:07.986Z,7.87
2023-04-21T02:03:37.060Z,7.87
2023-04-21T02:06:06.394Z,7.92
2023-04-21T02:08:34.852Z,7.94
2023-04-21T02:11:03.247Z,7.94
2023-04-21T02:13:31.472Z,7.95
2023-04-21T02:16:12.687Z,7.95
2023-04-21T02:18:41.807Z,7.82
2023-04-21T02:21:09.709Z,7.94
2023-04-21T02:23:37.739Z,7.92
2023-04-21T02:26:05.926Z,7.88
2023-04-21T02:28:34.028Z,7.85
2023-04-21T02:31:03.495Z,7.88
2023-04-21T02:33:32.287Z,7.80
2023-04-21T02:36:03.115Z,7.65
2023-04-21T02:38:31.625Z,7.56
2023-04-21T02:40:59.737Z,7.48
2023-04-21T02:43:28.030Z,7.43
2023-04-21T02:45:55.998Z,7.30
2023-04-21T02:48:25.503Z,7.29
2023-04-21T02:50:54.272Z,7.28
2023-04-21T02:53:22.461Z,7.23
2023-04-21T02:55:50.385Z,7.20
2023-04-21T02:58:18.650Z,7.20
2023-04-21T03:00:46.843Z,7.30
2023-04-21T03:03:17.132Z,7.28
2023-04-21T03:05:46.698Z,6.83
2023-04-21T03:08:15.206Z,7.33
2023-04-21T03:10:43.381Z,7.42
2023-04-21T03:13:11.846Z,7.45
2023-04-21T03:15:39.956Z,7.45
2023-04-21T03:18:08.185Z,7.34
2023-04-21T03:20:36.457Z,7.37
2023-04-21T03:23:05.926Z,7.46
2023-04-21T03:25:33.950Z,7.49
2023-04-21T03:28:02.203Z,7.36
2023-04-21T03:30:30.248Z,7.31
2023-04-21T03:32:58.901Z,7.26
2023-04-21T03:35:28.582Z,7.47
2023-04-21T03:37:57.240Z,7.60
2023-04-21T03:40:26.884Z,7.56
2023-04-21T03:42:55.150Z,7.64
2023-04-21T03:45:24.260Z,7.74
2023-04-21T03:47:57.186Z,7.72
2023-04-21T03:50:25.608Z,7.79
2023-04-21T03:52:54.895Z,7.72
2023-04-21T03:55:23.232Z,7.80
2023-04-21T03:57:52.960Z,7.82
2023-04-21T04:00:22.379Z,7.80
2023-04-21T04:02:51.772Z,7.78
2023-04-21T04:05:19.898Z,7.82
2023-04-21T04:07:49.119Z,7.96
2023-04-21T04:10:17.470Z,8.15
2023-04-21T04:12:45.573Z,8.22
2023-04-21T04:15:15.174Z,8.25
2023-04-21T04:17:44.530Z,8.38
2023-04-21T04:20:12.884Z,8.38
2023-04-21T04:22:40.998Z,8.27
2023-04-21T04:25:09.754Z,8.40
2023-04-21T04:27:39.079Z,8.60
2023-04-21T04:30:08.729Z,8.60
2023-04-21T04:32:39.966Z,8.43
2023-04-21T04:35:08.992Z,8.29
2023-04-21T04:37:38.734Z,8.19
2023-04-21T04:40:10.310Z,7.92
2023-04-21T04:42:39.749Z,7.97
2023-04-21T04:45:09.418Z,7.93
2023-04-21T04:47:39.364Z,7.79
2023-04-21T04:50:08.733Z,8.04
2023-04-21T04:52:36.926Z,8.08
2023-04-21T04:55:06.175Z,8.10
2023-04-21T04:57:34.517Z,8.17
2023-04-21T05:00:02.531Z,8.26
2023-04-21T05:02:30.894Z,8.28
2023-04-21T05:05:00.700Z,8.58
2023-04-21T05:07:28.869Z,8.50
2023-04-21T05:09:57.413Z,8.97
2023-04-21T05:12:25.902Z,8.91
2023-04-21T05:14:54.400Z,8.98
2023-04-21T05:17:22.499Z,9.09
2023-04-21T05:19:50.502Z,8.99
2023-04-21T05:22:19.806Z,9.24
2023-04-21T05:24:50.126Z,9.21
2023-04-21T05:27:18.124Z,9.62
2023-04-21T05:29:46.102Z,9.73
2023-04-21T05:32:14.557Z,8.94
2023-04-21T05:34:42.660Z,9.40
2023-04-21T05:37:12.407Z,9.49
2023-04-21T05:39:42.435Z,9.64
2023-04-21T05:42:11.361Z,9.80
2023-04-21T05:44:39.379Z,10.21
2023-04-21T05:47:08.020Z,10.77
2023-04-21T05:49:36.394Z,11.12
2023-04-21T05:52:06.615Z,11.37
2023-04-21T05:54:34.589Z,11.79
2023-04-21T05:57:04.237Z,11.89
2023-04-21T05:59:32.131Z,11.85
2023-04-21T06:02:00.183Z,12.24
2023-04-21T06:04:28.423Z,12.71
2023-04-21T06:06:56.764Z,13.19
2023-04-21T06:09:26.997Z,13.75
2023-04-21T06:11:55.351Z,13.91
2023-04-21T06:14:25.014Z,14.07
2023-04-21T06:16:53.118Z,14.32
2023-04-21T06:19:22.054Z,14.60
2023-04-21T06:21:50.072Z,14.93
2023-04-21T06:24:25.070Z,14.81
2023-04-21T06:26:53.767Z,14.86
2023-04-21T06:29:22.089Z,15.19
2023-04-21T06:31:51.694Z,15.46
2023-04-21T06:34:21.163Z,15.43
2023-04-21T06:36:49.326Z,15.33
2023-04-21T06:39:17.565Z,15.28
2023-04-21T06:41:45.821Z,15.24
2023-04-21T06:44:14.401Z,15.40
2023-04-21T06:46:42.652Z,15.33
2023-04-21T06:49:13.220Z,15.09
2023-04-21T06:51:41.183Z,15.19
2023-04-21T06:54:09.224Z,15.28
2023-04-21T06:56:37.572Z,16.02
2023-04-21T06:59:05.457Z,16.15
2023-04-21T07:01:33.621Z,16.18
2023-04-21T07:04:01.827Z,16.88
2023-04-21T07:06:32.077Z,16.80
2023-04-21T07:09:00.206Z,17.13
2023-04-21T07:11:30.984Z,16.93
2023-04-21T07:14:02.285Z,16.92
2023-04-21T07:16:30.486Z,16.92
2023-04-21T07:18:59.223Z,17.09
2023-04-21T07:21:27.501Z,17.29
2023-04-21T07:23:56.892Z,17.14
2023-04-21T07:26:25.230Z,17.30
2023-04-21T07:28:53.686Z,17.34
2023-04-21T07:31:21.887Z,17.61
2023-04-21T07:33:49.967Z,17.65
2023-04-21T07:36:18.536Z,17.60
2023-04-21T07:38:46.866Z,17.69
2023-04-21T07:41:16.328Z,17.74
2023-04-21T07:43:44.280Z,17.40
2023-04-21T07:46:13.554Z,16.83
2023-04-21T07:48:42.344Z,16.72
2023-04-21T07:51:10.284Z,17.05
2023-04-21T07:53:39.746Z,16.85
2023-04-21T07:56:08.838Z,16.94
2023-04-21T07:58:38.516Z,17.14
2023-04-21T08:01:09.904Z,17.00
2023-04-21T08:03:39.769Z,16.92
2023-04-21T08:06:09.204Z,17.12
2023-04-21T08:08:37.325Z,17.58
2023-04-21T08:11:05.353Z,17.68
2023-04-21T08:13:41.486Z,17.39
2023-04-21T08:16:11.044Z,16.90
2023-04-21T08:18:39.636Z,16.92
2023-04-21T08:21:07.997Z,16.98
2023-04-21T08:23:36.241Z,16.68
2023-04-21T08:26:05.245Z,16.64
2023-04-21T08:28:33.408Z,17.21
2023-04-21T08:31:05.053Z,17.19
2023-04-21T08:33:35.518Z,17.38
2023-04-21T08:36:12.331Z,17.63
2023-04-21T08:38:46.467Z,17.37
2023-04-21T08:41:14.929Z,17.05
2023-04-21T08:43:43.559Z,17.33
2023-04-21T08:46:11.601Z,17.26
2023-04-21T08:48:41.468Z,17.05
2023-04-21T08:51:11.291Z,16.91
2023-04-21T08:53:42.274Z,17.10
2023-04-21T08:56:11.901Z,17.12
2023-04-21T08:58:41.788Z,17.34
2023-04-21T09:01:10.037Z,17.34
2023-04-21T09:03:38.373Z,17.75
2023-04-21T09:06:10.325Z,18.05
2023-04-21T09:08:40.809Z,18.38
2023-04-21T09:11:08.878Z,18.76
2023-04-21T09:13:38.380Z,18.87
2023-04-21T09:16:16.485Z,19.22
2023-04-21T09:18:45.534Z,19.46
2023-04-21T09:21:18.366Z,19.32
2023-04-21T09:23:48.346Z,18.98
2023-04-21T09:26:17.216Z,18.83
2023-04-21T09:28:46.392Z,18.56
2023-04-21T09:31:29.117Z,17.82
2023-04-21T09:34:01.032Z,17.57
2023-04-21T09:36:32.302Z,17.11
2023-04-21T09:41:36.278Z,17.23
2023-04-21T09:44:05.244Z,16.88
2023-04-21T09:46:36.297Z,16.76
2023-04-21T09:49:05.807Z,16.85
2023-04-21T09:52:05.759Z,17.22
2023-04-21T09:54:31.922Z,17.70
2023-04-21T09:57:02.996Z,17.39
2023-04-21T09:59:34.359Z,17.47
2023-04-21T10:02:05.966Z,17.49
2023-04-21T10:04:36.428Z,17.27
2023-04-21T10:07:06.698Z,17.34
2023-04-21T10:09:41.333Z,17.68
2023-04-21T10:12:11.399Z,17.69
2023-04-21T10:14:39.613Z,17.40
2023-04-21T10:17:09.221Z,17.37
2023-04-21T10:19:40.215Z,17.76
2023-04-21T10:22:10.537Z,18.14
2023-04-21T10:24:41.013Z,17.68
2023-04-21T10:27:12.618Z,17.36
2023-04-21T10:29:55.605Z,17.13
2023-04-21T10:32:42.703Z,16.73
2023-04-21T10:35:12.208Z,16.88
2023-04-21T10:37:42.926Z,16.76
2023-04-21T10:40:44.123Z,16.55
2023-04-21T10:43:48.958Z,16.60
2023-04-21T10:46:34.087Z,16.96
2023-04-21T10:49:10.235Z,16.96
2023-04-21T10:52:07.017Z,16.76
2023-04-21T10:54:43.729Z,17.34
2023-04-21T10:57:13.710Z,17.61
2023-04-21T10:59:42.030Z,17.60
2023-04-21T11:02:15.360Z,17.92
2023-04-21T11:04:48.955Z,17.98
2023-04-21T11:07:18.909Z,17.59
2023-04-21T11:09:51.295Z,17.72
2023-04-21T11:12:20.307Z,17.74
2023-04-21T11:14:49.149Z,17.44
2023-04-21T11:17:19.241Z,16.90
2023-04-21T11:19:48.119Z,16.76
2023-04-21T11:22:18.016Z,16.60
2023-04-21T11:24:47.051Z,16.50
2023-04-21T11:27:16.428Z,16.45
2023-04-21T11:29:46.055Z,16.54
2023-04-21T11:32:16.599Z,16.57
2023-04-21T11:34:44.744Z,16.76
2023-04-21T11:37:18.128Z,17.01
2023-04-21T11:39:46.086Z,17.54
2023-04-21T11:42:23.653Z,17.61
2023-04-21T11:44:51.598Z,16.97
2023-04-21T11:47:22.677Z,16.93
2023-04-21T11:49:54.764Z,16.71
2023-04-21T11:52:27.018Z,16.75
2023-04-21T11:55:01.010Z,16.64
2023-04-21T11:57:32.591Z,16.73
2023-04-21T12:00:01.569Z,16.90
2023-04-21T12:02:31.929Z,17.05
2023-04-21T12:05:04.922Z,17.00
2023-04-21T12:07:34.051Z,16.54
2023-04-21T12:10:03.072Z,17.06
2023-04-21T12:12:33.461Z,17.01
2023-04-21T12:15:04.602Z,17.48
2023-04-21T12:17:39.118Z,17.29
2023-04-21T12:20:08.536Z,17.17
2023-04-21T12:22:36.732Z,17.47
2023-04-21T12:25:06.072Z,17.58
2023-04-21T12:27:35.813Z,17.44
2023-04-21T12:30:04.439Z,17.07
2023-04-21T12:32:32.712Z,17.40
2023-04-21T12:35:03.444Z,17.58
2023-04-21T12:37:32.027Z,17.84
2023-04-21T12:40:00.372Z,17.52
2023-04-21T12:42:28.375Z,17.24
2023-04-21T12:44:58.180Z,17.30
2023-04-21T12:47:26.467Z,17.54
2023-04-21T12:49:54.945Z,17.43
2023-04-21T12:52:22.933Z,17.21
2023-04-21T12:54:50.955Z,17.22
2023-04-21T12:57:19.028Z,17.07
2023-04-21T12:59:47.433Z,16.89
2023-04-21T13:02:17.167Z,16.82
2023-04-21T13:04:47.099Z,16.86
2023-04-21T13:07:16.285Z,17.04
2023-04-21T13:09:44.521Z,17.23
2023-04-21T13:12:12.785Z,17.63
2023-04-21T13:14:40.919Z,17.28
2023-04-21T13:17:08.985Z,17.35
2023-04-21T13:19:38.498Z,17.45
2023-04-21T13:22:06.533Z,17.42
2023-04-21T13:24:35.034Z,17.16
2023-04-21T13:27:03.187Z,17.28
2023-04-21T13:29:34.620Z,16.81
2023-04-21T13:32:03.303Z,16.67
2023-04-21T13:34:32.361Z,17.14
2023-04-21T13:37:02.834Z,17.11
2023-04-21T13:39:31.139Z,17.26
2023-04-21T13:41:59.418Z,16.88
2023-04-21T13:44:27.632Z,17.02
2023-04-21T13:46:57.646Z,16.96
2023-04-21T13:49:25.742Z,16.99
2023-04-21T13:51:53.849Z,16.81
2023-04-21T13:54:23.181Z,16.92
2023-04-21T13:56:51.337Z,16.96
2023-04-21T13:59:21.318Z,17.00
2023-04-21T14:01:49.368Z,17.06
2023-04-21T14:04:17.570Z,17.03
2023-04-21T14:06:48.029Z,16.97
2023-04-21T14:09:16.324Z,17.02
2023-04-21T14:11:45.831Z,17.04
2023-04-21T14:14:16.938Z,17.05
2023-04-21T14:16:49.921Z,16.94
2023-04-21T14:19:18.148Z,16.82
2023-04-21T14:21:46.189Z,16.88
2023-04-21T14:24:14.670Z,16.73
2023-04-21T14:26:42.738Z,16.95
2023-04-21T14:29:12.370Z,17.00
2023-04-21T14:31:40.612Z,16.62
2023-04-21T14:34:08.627Z,16.75
2023-04-21T14:36:38.678Z,16.74
2023-04-21T14:39:06.675Z,16.71
2023-04-21T14:41:34.627Z,16.66
2023-04-21T14:44:05.190Z,16.78
2023-04-21T14:46:35.737Z,16.76
2023-04-21T14:49:06.121Z,16.92
2023-04-21T14:51:34.247Z,16.98
2023-04-21T14:54:03.856Z,16.80
2023-04-21T14:56:32.040Z,16.79
2023-04-21T14:59:00.191Z,16.69
2023-04-21T15:01:28.312Z,16.68
2023-04-21T15:04:00.186Z,16.65
2023-04-21T15:06:28.406Z,16.52
2023-04-21T15:08:56.561Z,16.47
2023-04-21T15:11:24.534Z,16.19
2023-04-21T15:13:52.725Z,15.62
2023-04-21T15:16:20.890Z,15.19
2023-04-21T15:18:49.172Z,14.95
2023-04-21T15:21:20.241Z,15.00
2023-04-21T15:23:48.301Z,15.10
2023-04-21T15:28:44.273Z,14.91
2023-04-21T15:31:14.741Z,15.13
2023-04-21T15:33:42.915Z,15.24
2023-04-21T15:36:11.078Z,15.59
2023-04-21T15:38:41.023Z,15.70
2023-04-21T15:41:09.237Z,15.73
2023-04-21T15:43:37.582Z,15.59
2023-04-21T15:46:13.502Z,15.84
2023-04-21T15:48:42.377Z,15.88
2023-04-21T15:51:11.153Z,15.89
2023-04-21T15:53:47.559Z,15.87
2023-04-21T15:56:15.992Z,15.79
2023-04-21T15:58:44.452Z,15.97
2023-04-21T16:01:14.961Z,16.07
2023-04-21T16:03:44.475Z,16.12
2023-04-21T16:06:12.762Z,15.98
2023-04-21T16:08:44.836Z,15.89
2023-04-21T16:11:12.925Z,15.86
2023-04-21T16:13:41.066Z,15.82
2023-04-21T16:16:09.427Z,15.76
2023-04-21T16:18:37.493Z,15.69
2023-04-21T16:21:05.951Z,15.59
2023-04-21T16:23:34.071Z,15.49
2023-04-21T16:26:05.983Z,15.51
2023-04-21T16:28:34.057Z,15.40
2023-04-21T16:31:02.096Z,15.32
2023-04-21T16:33:30.040Z,15.18
2023-04-21T16:35:58.250Z,14.73
2023-04-21T16:38:26.898Z,15.08
2023-04-21T16:40:54.863Z,14.98
2023-04-21T16:43:24.564Z,14.94
2023-04-21T16:45:52.764Z,14.84
2023-04-21T16:48:20.818Z,14.60
2023-04-21T16:50:48.964Z,14.79
2023-04-21T16:53:18.491Z,14.76
2023-04-21T16:55:46.530Z,14.63
2023-04-21T16:58:14.473Z,14.53
2023-04-21T17:00:44.049Z,14.55
2023-04-21T17:03:12.203Z,14.46
2023-04-21T17:05:40.353Z,14.34
2023-04-21T17:08:08.423Z,14.25
2023-04-21T17:10:36.556Z,14.15
2023-04-21T17:13:06.342Z,14.07
2023-04-21T17:15:34.504Z,13.98
2023-04-21T17:18:03.986Z,13.98
2023-04-21T17:20:32.107Z,13.97
2023-04-21T17:23:00.069Z,13.94
2023-04-21T17:25:28.255Z,13.92
2023-04-21T17:27:56.925Z,13.90
2023-04-21T17:30:25.014Z,13.94
2023-04-21T17:33:04.173Z,14.01
2023-04-21T17:35:41.616Z,13.99
2023-04-21T17:38:18.056Z,13.95
2023-04-21T17:40:46.164Z,13.96
2023-04-21T17:43:14.342Z,13.96
2023-04-21T17:45:43.385Z,13.92
2023-04-21T17:48:11.532Z,13.89
2023-04-21T17:50:40.959Z,13.88
2023-04-21T17:53:09.087Z,13.83
2023-04-21T17:55:37.137Z,13.75
2023-04-21T17:58:05.032Z,13.68
2023-04-21T18:00:34.548Z,13.67
2023-04-21T18:03:03.304Z,13.62
2023-04-21T18:05:31.484Z,13.27
2023-04-21T18:08:02.260Z,13.40
2023-04-21T18:10:30.802Z,13.36
2023-04-21T18:12:59.525Z,13.23
2023-04-21T18:15:27.518Z,13.25
2023-04-21T18:17:55.693Z,13.17
2023-04-21T18:20:23.714Z,12.94
2023-04-21T18:22:52.295Z,12.99
2023-04-21T18:25:40.839Z,12.85
2023-04-21T18:28:14.202Z,12.75
2023-04-21T18:30:42.432Z,12.56
2023-04-21T18:33:11.775Z,12.62
2023-04-21T18:35:40.258Z,12.50
2023-04-21T18:38:10.593Z,12.50
2023-04-21T18:40:40.922Z,12.53
2023-04-21T18:43:10.018Z,12.50
2023-04-21T18:45:38.789Z,11.75
2023-04-21T18:48:08.736Z,12.39
2023-04-21T18:50:40.321Z,12.42
2023-04-21T18:53:09.349Z,12.41
2023-04-21T18:55:39.209Z,12.43
2023-04-21T18:58:07.725Z,12.44
2023-04-21T19:00:39.336Z,12.44
2023-04-21T19:03:09.702Z,12.46
2023-04-21T19:05:40.619Z,12.46
2023-04-21T19:08:10.999Z,12.41
2023-04-21T19:10:40.752Z,12.38
2023-04-21T19:13:09.035Z,12.38
2023-04-21T19:15:37.434Z,12.39
2023-04-21T19:18:06.773Z,12.30
2023-04-21T19:20:37.546Z,12.42
2023-04-21T19:23:05.866Z,12.51
2023-04-21T19:25:37.007Z,12.56
2023-04-21T19:28:07.946Z,12.60
2023-04-21T19:30:35.880Z,12.64
2023-04-21T19:33:05.497Z,12.58
2023-04-21T19:35:33.787Z,12.59
2023-04-21T19:38:02.286Z,12.41
2023-04-21T19:40:31.035Z,12.42
2023-04-21T19:42:59.840Z,12.48
2023-04-21T19:45:29.184Z,12.50
2023-04-21T19:47:57.348Z,12.44
2023-04-21T19:50:25.682Z,12.54
2023-04-21T19:52:53.501Z,12.39
2023-04-21T19:55:21.542Z,12.42
2023-04-21T19:57:49.839Z,12.35
2023-04-21T20:00:18.326Z,12.59
2023-04-21T20:02:47.808Z,12.59
2023-04-21T20:05:16.013Z,12.50
2023-04-21T20:07:44.503Z,12.43
2023-04-21T20:10:13.827Z,12.30
2023-04-21T20:12:41.962Z,12.30
2023-04-21T20:15:11.965Z,12.12
2023-04-21T20:17:40.130Z,12.17
2023-04-21T20:20:11.171Z,12.11
2023-04-21T20:22:39.540Z,12.18
2023-04-21T20:25:08.410Z,12.24
2023-04-21T20:27:36.573Z,11.96
2023-04-21T20:30:05.364Z,11.80
2023-04-21T20:32:33.902Z,12.07
2023-04-21T20:35:02.338Z,11.85
2023-04-21T20:37:33.604Z,11.79
2023-04-21T20:40:04.569Z,11.66
2023-04-21T20:42:33.421Z,11.91
2023-04-21T20:45:02.341Z,11.79
2023-04-21T20:47:30.539Z,11.72
2023-04-21T20:49:59.194Z,11.71
2023-04-21T20:52:27.309Z,11.65
2023-04-21T20:54:56.834Z,11.75
2023-04-21T20:57:27.041Z,11.65
2023-04-21T20:59:55.318Z,11.52
2023-04-21T21:02:23.617Z,11.49
2023-04-21T21:04:51.905Z,11.22
2023-04-21T21:07:19.990Z,11.12
2023-04-21T21:09:48.055Z,11.00
2023-04-21T21:12:17.555Z,10.88
2023-04-21T21:14:45.508Z,10.80
2023-04-21T21:17:16.548Z,10.66
2023-04-21T21:19:44.620Z,10.48
2023-04-21T21:22:12.776Z,10.30
2023-04-21T21:24:41.015Z,10.27
2023-04-21T21:27:09.286Z,10.18
2023-04-21T21:29:38.807Z,10.15
2023-04-21T21:32:07.271Z,10.09
2023-04-21T21:34:35.342Z,10.16
2023-04-21T21:37:05.086Z,10.15
2023-04-21T21:39:33.662Z,10.22
2023-04-21T21:42:02.444Z,10.21
2023-04-21T21:44:30.320Z,10.28
2023-04-21T21:46:59.940Z,10.17
2023-04-21T21:49:27.863Z,10.07
2023-04-21T21:51:55.998Z,10.52
2023-04-21T21:54:24.168Z,10.58
2023-04-21T21:56:52.305Z,10.76
2023-04-21T21:59:20.817Z,10.71
2023-04-21T22:01:49.892Z,10.72
2023-04-21T22:04:19.227Z,10.76
2023-04-21T22:06:47.333Z,10.65
2023-04-21T22:09:15.578Z,10.43
2023-04-21T22:11:44.873Z,10.56
2023-04-21T22:14:22.778Z,10.74
2023-04-21T22:16:53.214Z,10.77
2023-04-21T22:19:22.883Z,10.67
2023-04-21T22:21:50.931Z,10.57
2023-04-21T22:24:19.485Z,10.53
2023-04-21T22:26:48.556Z,10.28
2023-04-21T22:29:16.648Z,10.02
2023-04-21T22:31:45.202Z,10.03
2023-04-21T22:34:15.207Z,10.20
2023-04-21T22:36:48.006Z,10.10
2023-04-21T22:39:15.939Z,10.06
2023-04-21T22:41:44.235Z,10.12
2023-04-21T22:44:12.418Z,10.18
2023-04-21T22:46:41.226Z,10.03
2023-04-21T22:49:09.679Z,10.08
2023-04-21T22:51:38.242Z,10.07
2023-04-21T22:54:07.869Z,10.04
2023-04-21T22:56:35.941Z,10.03
2023-04-21T22:59:04.157Z,10.01
2023-04-21T23:01:32.501Z,9.91
2023-04-21T23:04:00.840Z,9.78
2023-04-21T23:06:29.109Z,9.85
2023-04-21T23:08:57.427Z,9.93
2023-04-21T23:11:26.924Z,9.95
2023-04-21T23:13:56.268Z,9.94
2023-04-21T23:16:24.540Z,9.96
2023-04-21T23:18:52.730Z,9.89
2023-04-21T23:21:21.111Z,9.82
2023-04-21T23:23:50.421Z,9.78
2023-04-21T23:26:18.410Z,9.62
2023-04-21T23:28:48.155Z,9.57
2023-04-21T23:31:16.252Z,9.56
2023-04-21T23:33:44.557Z,9.63
2023-04-21T23:36:12.512Z,9.68
2023-04-21T23:38:40.770Z,9.64
2023-04-21T23:41:08.702Z,9.40
2023-04-21T23:43:37.298Z,9.83
2023-04-21T23:46:07.944Z,9.86
2023-04-21T23:48:36.100Z,9.87
2023-04-21T23:51:04.181Z,9.91
2023-04-21T23:53:32.255Z,9.85
2023-04-21T23:56:00.725Z,9.77
2023-04-21T23:58:28.745Z,9.83
